sensor_id;sensor_type;location;lat;lon;timestamp;temperature;humidity
24085;DHT22;12268;52.110;5.548;2023-02-26T00:02:15;6.00;99.90
24085;DHT22;12268;52.110;5.548;2023-02-26T00:04:41;6.00;99.90
24085;DHT22;12268;52.110;5.548;2023-02-26T00:07:06;5.80;99.90
24085;DHT22;12268;52.110;5.548;2023-02-26T00:09:32;5.80;99.90
24085;DHT22;12268;52.110;5.548;2023-02-26T00:11:59;5.60;99.90
24085;DHT22;12268;52.110;5.548;2023-02-26T00:14:25;5.50;99.90
24085;DHT22;12268;52.110;5.548;2023-02-26T00:17:04;5.50;99.90
24085;DHT22;12268;52.110;5.548;2023-02-26T00:19:30;5.50;99.90
24085;DHT22;12268;52.110;5.548;2023-02-26T00:21:56;5.40;99.90
24085;DHT22;12268;52.110;5.548;2023-02-26T00:24:21;5.30;99.90
24085;DHT22;12268;52.110;5.548;2023-02-26T00:26:47;5.30;99.90
24085;DHT22;12268;52.110;5.548;2023-02-26T00:29:13;5.20;99.90
24085;DHT22;12268;52.110;5.548;2023-02-26T00:31:39;5.10;99.90
24085;DHT22;12268;52.110;5.548;2023-02-26T00:34:04;5.00;99.90
24085;DHT22;12268;52.110;5.548;2023-02-26T00:39:34;4.70;99.90
24085;DHT22;12268;52.110;5.548;2023-02-26T00:42:02;4.70;99.90
24085;DHT22;12268;52.110;5.548;2023-02-26T00:44:28;4.70;99.90
24085;DHT22;12268;52.110;5.548;2023-02-26T00:47:07;4.60;99.90
24085;DHT22;12268;52.110;5.548;2023-02-26T00:50:01;4.70;99.90
24085;DHT22;12268;52.110;5.548;2023-02-26T00:55:24;4.70;99.90
24085;DHT22;12268;52.110;5.548;2023-02-26T00:57:49;4.60;99.90
24085;DHT22;12268;52.110;5.548;2023-02-26T01:00:15;4.60;99.90
24085;DHT22;12268;52.110;5.548;2023-02-26T01:02:41;4.70;99.90
24085;DHT22;12268;52.110;5.548;2023-02-26T01:08:04;4.50;99.90
24085;DHT22;12268;52.110;5.548;2023-02-26T01:10:34;4.50;99.90
24085;DHT22;12268;52.110;5.548;2023-02-26T01:13:00;4.60;99.90
24085;DHT22;12268;52.110;5.548;2023-02-26T01:15:26;4.70;99.90
24085;DHT22;12268;52.110;5.548;2023-02-26T01:18:11;4.60;99.90
24085;DHT22;12268;52.110;5.548;2023-02-26T01:20:48;4.60;99.90
24085;DHT22;12268;52.110;5.548;2023-02-26T01:23:19;4.60;99.90
24085;DHT22;12268;52.110;5.548;2023-02-26T01:25:50;4.60;99.90
24085;DHT22;12268;52.110;5.548;2023-02-26T01:28:19;4.60;99.90
24085;DHT22;12268;52.110;5.548;2023-02-26T01:30:45;4.50;99.90
24085;DHT22;12268;52.110;5.548;2023-02-26T01:33:21;4.50;99.90
24085;DHT22;12268;52.110;5.548;2023-02-26T01:35:53;4.40;99.90
24085;DHT22;12268;52.110;5.548;2023-02-26T01:43:56;4.30;99.90
24085;DHT22;12268;52.110;5.548;2023-02-26T01:46:38;4.30;99.90
24085;DHT22;12268;52.110;5.548;2023-02-26T01:49:12;4.30;99.90
24085;DHT22;12268;52.110;5.548;2023-02-26T01:51:48;4.30;99.90
24085;DHT22;12268;52.110;5.548;2023-02-26T01:54:17;4.20;99.90
24085;DHT22;12268;52.110;5.548;2023-02-26T01:56:44;4.20;99.90
24085;DHT22;12268;52.110;5.548;2023-02-26T01:59:15;4.20;99.90
24085;DHT22;12268;52.110;5.548;2023-02-26T02:01:41;4.20;99.90
24085;DHT22;12268;52.110;5.548;2023-02-26T02:04:12;4.10;99.90
24085;DHT22;12268;52.110;5.548;2023-02-26T02:06:38;4.10;99.90
24085;DHT22;12268;52.110;5.548;2023-02-26T02:09:06;4.10;99.90
24085;DHT22;12268;52.110;5.548;2023-02-26T02:11:32;4.00;99.90
24085;DHT22;12268;52.110;5.548;2023-02-26T02:22:27;4.20;99.90
24085;DHT22;12268;52.110;5.548;2023-02-26T02:25:19;4.20;99.90
24085;DHT22;12268;52.110;5.548;2023-02-26T02:32:58;4.00;99.90
24085;DHT22;12268;52.110;5.548;2023-02-26T02:35:33;4.10;99.90
24085;DHT22;12268;52.110;5.548;2023-02-26T02:42:06;4.00;99.90
24085;DHT22;12268;52.110;5.548;2023-02-26T02:44:09;3.90;99.90
24085;DHT22;12268;52.110;5.548;2023-02-26T02:46:38;3.90;99.90
24085;DHT22;12268;52.110;5.548;2023-02-26T02:49:20;3.90;99.90
24085;DHT22;12268;52.110;5.548;2023-02-26T02:51:54;3.90;99.90
24085;DHT22;12268;52.110;5.548;2023-02-26T02:54:34;3.90;99.90
24085;DHT22;12268;52.110;5.548;2023-02-26T02:57:20;3.80;99.90
24085;DHT22;12268;52.110;5.548;2023-02-26T02:59:53;3.70;99.90
24085;DHT22;12268;52.110;5.548;2023-02-26T03:02:31;3.70;99.90
24085;DHT22;12268;52.110;5.548;2023-02-26T03:04:58;3.70;99.90
24085;DHT22;12268;52.110;5.548;2023-02-26T03:07:24;3.50;99.90
24085;DHT22;12268;52.110;5.548;2023-02-26T03:09:49;3.50;99.90
24085;DHT22;12268;52.110;5.548;2023-02-26T03:12:15;3.50;99.90
24085;DHT22;12268;52.110;5.548;2023-02-26T03:14:41;3.60;99.90
24085;DHT22;12268;52.110;5.548;2023-02-26T03:22:17;3.60;99.90
24085;DHT22;12268;52.110;5.548;2023-02-26T03:27:32;3.60;99.90
24085;DHT22;12268;52.110;5.548;2023-02-26T03:30:04;3.50;99.90
24085;DHT22;12268;52.110;5.548;2023-02-26T03:33:05;3.50;99.90
24085;DHT22;12268;52.110;5.548;2023-02-26T03:35:53;3.40;99.90
24085;DHT22;12268;52.110;5.548;2023-02-26T03:41:23;3.30;99.90
24085;DHT22;12268;52.110;5.548;2023-02-26T03:43:55;3.30;99.90
24085;DHT22;12268;52.110;5.548;2023-02-26T03:46:30;3.20;99.90
24085;DHT22;12268;52.110;5.548;2023-02-26T03:48:59;3.30;99.90
24085;DHT22;12268;52.110;5.548;2023-02-26T03:51:27;3.30;99.90
24085;DHT22;12268;52.110;5.548;2023-02-26T03:53:57;3.30;99.90
24085;DHT22;12268;52.110;5.548;2023-02-26T03:56:36;3.30;99.90
24085;DHT22;12268;52.110;5.548;2023-02-26T03:59:03;3.30;99.90
24085;DHT22;12268;52.110;5.548;2023-02-26T04:01:34;3.40;99.90
24085;DHT22;12268;52.110;5.548;2023-02-26T04:06:55;3.30;99.90
24085;DHT22;12268;52.110;5.548;2023-02-26T04:09:21;3.30;99.90
24085;DHT22;12268;52.110;5.548;2023-02-26T04:11:48;3.20;99.90
24085;DHT22;12268;52.110;5.548;2023-02-26T04:14:14;3.20;99.90
24085;DHT22;12268;52.110;5.548;2023-02-26T04:16:41;3.20;99.90
24085;DHT22;12268;52.110;5.548;2023-02-26T04:19:07;3.20;99.90
24085;DHT22;12268;52.110;5.548;2023-02-26T04:21:33;3.30;99.90
24085;DHT22;12268;52.110;5.548;2023-02-26T04:23:58;3.20;99.90
24085;DHT22;12268;52.110;5.548;2023-02-26T04:26:24;3.10;99.90
24085;DHT22;12268;52.110;5.548;2023-02-26T04:28:49;3.20;99.90
24085;DHT22;12268;52.110;5.548;2023-02-26T04:31:15;3.10;99.90
24085;DHT22;12268;52.110;5.548;2023-02-26T04:33:41;3.10;99.90
24085;DHT22;12268;52.110;5.548;2023-02-26T04:36:07;3.00;99.90
24085;DHT22;12268;52.110;5.548;2023-02-26T04:38:33;3.00;99.90
24085;DHT22;12268;52.110;5.548;2023-02-26T04:40:58;3.00;99.90
24085;DHT22;12268;52.110;5.548;2023-02-26T04:43:24;3.00;99.90
24085;DHT22;12268;52.110;5.548;2023-02-26T04:45:50;3.00;99.90
24085;DHT22;12268;52.110;5.548;2023-02-26T04:48:16;3.00;99.90
24085;DHT22;12268;52.110;5.548;2023-02-26T04:50:41;3.00;99.90
24085;DHT22;12268;52.110;5.548;2023-02-26T04:53:07;3.00;99.90
24085;DHT22;12268;52.110;5.548;2023-02-26T04:55:34;3.00;99.90
24085;DHT22;12268;52.110;5.548;2023-02-26T04:57:59;3.00;99.90
24085;DHT22;12268;52.110;5.548;2023-02-26T05:00:25;3.00;99.90
24085;DHT22;12268;52.110;5.548;2023-02-26T05:02:51;3.00;99.90
24085;DHT22;12268;52.110;5.548;2023-02-26T05:05:16;3.00;99.90
24085;DHT22;12268;52.110;5.548;2023-02-26T05:07:42;2.90;99.90
24085;DHT22;12268;52.110;5.548;2023-02-26T05:10:08;3.00;99.90
24085;DHT22;12268;52.110;5.548;2023-02-26T05:12:34;3.00;99.90
24085;DHT22;12268;52.110;5.548;2023-02-26T05:14:59;3.00;99.90
24085;DHT22;12268;52.110;5.548;2023-02-26T05:17:25;3.00;99.90
24085;DHT22;12268;52.110;5.548;2023-02-26T05:19:50;2.90;99.90
24085;DHT22;12268;52.110;5.548;2023-02-26T05:22:16;2.80;99.90
24085;DHT22;12268;52.110;5.548;2023-02-26T05:24:42;2.90;99.90
24085;DHT22;12268;52.110;5.548;2023-02-26T05:27:08;2.80;99.90
24085;DHT22;12268;52.110;5.548;2023-02-26T05:29:34;2.70;99.90
24085;DHT22;12268;52.110;5.548;2023-02-26T05:31:59;2.70;99.90
24085;DHT22;12268;52.110;5.548;2023-02-26T05:34:25;2.70;99.90
24085;DHT22;12268;52.110;5.548;2023-02-26T05:36:50;2.80;99.90
24085;DHT22;12268;52.110;5.548;2023-02-26T05:39:16;2.80;99.90
24085;DHT22;12268;52.110;5.548;2023-02-26T05:41:41;2.90;99.90
24085;DHT22;12268;52.110;5.548;2023-02-26T05:44:07;2.80;99.90
24085;DHT22;12268;52.110;5.548;2023-02-26T05:46:33;2.80;99.90
24085;DHT22;12268;52.110;5.548;2023-02-26T05:48:59;2.70;99.90
24085;DHT22;12268;52.110;5.548;2023-02-26T05:51:24;2.60;99.90
24085;DHT22;12268;52.110;5.548;2023-02-26T05:53:50;2.60;99.90
24085;DHT22;12268;52.110;5.548;2023-02-26T05:56:15;2.60;99.90
24085;DHT22;12268;52.110;5.548;2023-02-26T05:58:41;2.80;99.90
24085;DHT22;12268;52.110;5.548;2023-02-26T06:01:06;2.80;99.90
24085;DHT22;12268;52.110;5.548;2023-02-26T06:03:32;2.80;99.90
24085;DHT22;12268;52.110;5.548;2023-02-26T06:05:58;2.80;99.90
24085;DHT22;12268;52.110;5.548;2023-02-26T06:08:23;2.70;99.90
24085;DHT22;12268;52.110;5.548;2023-02-26T06:10:50;2.70;99.90
24085;DHT22;12268;52.110;5.548;2023-02-26T06:13:16;2.60;99.90
24085;DHT22;12268;52.110;5.548;2023-02-26T06:15:42;2.60;99.90
24085;DHT22;12268;52.110;5.548;2023-02-26T06:18:07;2.60;99.90
24085;DHT22;12268;52.110;5.548;2023-02-26T06:20:34;2.60;99.90
24085;DHT22;12268;52.110;5.548;2023-02-26T06:22:59;2.60;99.90
24085;DHT22;12268;52.110;5.548;2023-02-26T06:25:25;2.60;99.90
24085;DHT22;12268;52.110;5.548;2023-02-26T06:27:50;2.50;99.90
24085;DHT22;12268;52.110;5.548;2023-02-26T06:30:16;2.40;99.90
24085;DHT22;12268;52.110;5.548;2023-02-26T06:32:42;2.30;99.90
24085;DHT22;12268;52.110;5.548;2023-02-26T06:35:09;2.60;99.90
24085;DHT22;12268;52.110;5.548;2023-02-26T06:37:34;2.70;99.90
24085;DHT22;12268;52.110;5.548;2023-02-26T06:40:00;2.70;99.90
24085;DHT22;12268;52.110;5.548;2023-02-26T06:42:26;2.70;99.90
24085;DHT22;12268;52.110;5.548;2023-02-26T06:44:51;2.70;99.90
24085;DHT22;12268;52.110;5.548;2023-02-26T06:47:17;2.60;99.90
24085;DHT22;12268;52.110;5.548;2023-02-26T06:49:42;2.60;99.90
24085;DHT22;12268;52.110;5.548;2023-02-26T06:52:08;2.70;99.90
24085;DHT22;12268;52.110;5.548;2023-02-26T06:54:33;2.80;99.90
24085;DHT22;12268;52.110;5.548;2023-02-26T06:56:59;2.90;99.90
24085;DHT22;12268;52.110;5.548;2023-02-26T06:59:26;3.00;99.90
24085;DHT22;12268;52.110;5.548;2023-02-26T07:01:53;3.10;99.90
24085;DHT22;12268;52.110;5.548;2023-02-26T07:04:18;3.20;99.90
24085;DHT22;12268;52.110;5.548;2023-02-26T07:06:44;3.20;99.90
24085;DHT22;12268;52.110;5.548;2023-02-26T07:09:09;3.30;99.90
24085;DHT22;12268;52.110;5.548;2023-02-26T07:11:35;3.40;99.90
24085;DHT22;12268;52.110;5.548;2023-02-26T07:14:00;3.40;99.90
24085;DHT22;12268;52.110;5.548;2023-02-26T07:16:26;3.60;99.90
24085;DHT22;12268;52.110;5.548;2023-02-26T07:18:52;3.80;99.90
24085;DHT22;12268;52.110;5.548;2023-02-26T07:21:17;4.00;99.90
24085;DHT22;12268;52.110;5.548;2023-02-26T07:23:43;4.10;99.90
24085;DHT22;12268;52.110;5.548;2023-02-26T07:26:08;4.40;99.90
24085;DHT22;12268;52.110;5.548;2023-02-26T07:28:34;4.50;99.90
24085;DHT22;12268;52.110;5.548;2023-02-26T07:30:59;4.50;99.90
24085;DHT22;12268;52.110;5.548;2023-02-26T07:33:25;4.50;99.90
24085;DHT22;12268;52.110;5.548;2023-02-26T07:35:53;5.00;99.90
24085;DHT22;12268;52.110;5.548;2023-02-26T07:38:18;5.40;99.90
24085;DHT22;12268;52.110;5.548;2023-02-26T07:40:44;5.70;99.90
24085;DHT22;12268;52.110;5.548;2023-02-26T07:43:09;6.00;99.90
24085;DHT22;12268;52.110;5.548;2023-02-26T07:45:35;6.00;99.90
24085;DHT22;12268;52.110;5.548;2023-02-26T07:48:00;6.10;99.90
24085;DHT22;12268;52.110;5.548;2023-02-26T07:50:26;6.30;99.90
24085;DHT22;12268;52.110;5.548;2023-02-26T07:52:52;6.60;99.90
24085;DHT22;12268;52.110;5.548;2023-02-26T07:55:18;6.90;99.90
24085;DHT22;12268;52.110;5.548;2023-02-26T07:57:44;6.80;99.90
24085;DHT22;12268;52.110;5.548;2023-02-26T08:00:10;6.70;99.90
24085;DHT22;12268;52.110;5.548;2023-02-26T08:02:35;6.70;99.90
24085;DHT22;12268;52.110;5.548;2023-02-26T08:05:01;6.80;99.90
24085;DHT22;12268;52.110;5.548;2023-02-26T08:07:26;6.70;99.90
24085;DHT22;12268;52.110;5.548;2023-02-26T08:09:52;6.80;99.90
24085;DHT22;12268;52.110;5.548;2023-02-26T08:12:18;7.20;99.90
24085;DHT22;12268;52.110;5.548;2023-02-26T08:14:43;7.10;99.90
24085;DHT22;12268;52.110;5.548;2023-02-26T08:17:09;6.90;99.90
24085;DHT22;12268;52.110;5.548;2023-02-26T08:19:35;6.60;99.90
24085;DHT22;12268;52.110;5.548;2023-02-26T08:22:01;6.40;99.90
24085;DHT22;12268;52.110;5.548;2023-02-26T08:24:27;6.60;99.90
24085;DHT22;12268;52.110;5.548;2023-02-26T08:26:52;6.90;99.90
24085;DHT22;12268;52.110;5.548;2023-02-26T08:29:18;7.20;99.90
24085;DHT22;12268;52.110;5.548;2023-02-26T08:31:44;7.30;99.90
24085;DHT22;12268;52.110;5.548;2023-02-26T08:34:09;7.30;99.90
24085;DHT22;12268;52.110;5.548;2023-02-26T08:36:35;7.80;99.90
24085;DHT22;12268;52.110;5.548;2023-02-26T08:39:00;8.40;99.90
24085;DHT22;12268;52.110;5.548;2023-02-26T08:41:26;8.90;99.90
24085;DHT22;12268;52.110;5.548;2023-02-26T08:43:54;9.10;99.90
24085;DHT22;12268;52.110;5.548;2023-02-26T08:46:20;9.50;99.90
24085;DHT22;12268;52.110;5.548;2023-02-26T08:48:46;9.90;99.90
24085;DHT22;12268;52.110;5.548;2023-02-26T08:51:11;10.20;99.90
24085;DHT22;12268;52.110;5.548;2023-02-26T08:53:37;10.20;99.90
24085;DHT22;12268;52.110;5.548;2023-02-26T08:56:04;10.10;99.90
24085;DHT22;12268;52.110;5.548;2023-02-26T08:58:30;9.90;99.90
24085;DHT22;12268;52.110;5.548;2023-02-26T09:00:55;10.40;99.90
24085;DHT22;12268;52.110;5.548;2023-02-26T09:03:21;10.90;99.90
24085;DHT22;12268;52.110;5.548;2023-02-26T09:05:46;12.20;99.90
24085;DHT22;12268;52.110;5.548;2023-02-26T09:08:12;13.40;99.60
24085;DHT22;12268;52.110;5.548;2023-02-26T09:10:40;13.60;96.90
24085;DHT22;12268;52.110;5.548;2023-02-26T09:13:05;13.90;97.40
24085;DHT22;12268;52.110;5.548;2023-02-26T09:15:31;14.10;97.60
24085;DHT22;12268;52.110;5.548;2023-02-26T09:17:56;13.60;94.90
24085;DHT22;12268;52.110;5.548;2023-02-26T09:20:22;14.10;96.70
24085;DHT22;12268;52.110;5.548;2023-02-26T09:22:48;13.10;94.70
24085;DHT22;12268;52.110;5.548;2023-02-26T09:25:13;12.80;94.60
24085;DHT22;12268;52.110;5.548;2023-02-26T09:27:39;12.10;96.30
24085;DHT22;12268;52.110;5.548;2023-02-26T09:30:05;12.00;95.30
24085;DHT22;12268;52.110;5.548;2023-02-26T09:32:31;12.50;95.40
24085;DHT22;12268;52.110;5.548;2023-02-26T09:34:57;12.20;94.30
24085;DHT22;12268;52.110;5.548;2023-02-26T09:37:22;12.20;94.70
24085;DHT22;12268;52.110;5.548;2023-02-26T09:39:48;11.70;93.40
24085;DHT22;12268;52.110;5.548;2023-02-26T09:42:45;12.20;93.40
24085;DHT22;12268;52.110;5.548;2023-02-26T09:45:26;10.90;94.70
24085;DHT22;12268;52.110;5.548;2023-02-26T09:47:54;10.20;95.30
24085;DHT22;12268;52.110;5.548;2023-02-26T09:50:26;11.40;96.80
24085;DHT22;12268;52.110;5.548;2023-02-26T09:52:59;12.10;94.80
24085;DHT22;12268;52.110;5.548;2023-02-26T09:55:42;13.00;97.10
24085;DHT22;12268;52.110;5.548;2023-02-26T10:00:58;14.20;92.70
24085;DHT22;12268;52.110;5.548;2023-02-26T10:06:34;15.00;91.10
24085;DHT22;12268;52.110;5.548;2023-02-26T10:14:17;15.20;87.60
24085;DHT22;12268;52.110;5.548;2023-02-26T10:16:49;14.40;91.40
24085;DHT22;12268;52.110;5.548;2023-02-26T10:19:18;13.50;92.20
24085;DHT22;12268;52.110;5.548;2023-02-26T10:21:53;13.80;89.30
24085;DHT22;12268;52.110;5.548;2023-02-26T10:24:25;14.40;88.70
24085;DHT22;12268;52.110;5.548;2023-02-26T10:26:57;14.70;88.00
24085;DHT22;12268;52.110;5.548;2023-02-26T10:34:55;14.90;84.90
24085;DHT22;12268;52.110;5.548;2023-02-26T10:37:35;15.30;82.00
24085;DHT22;12268;52.110;5.548;2023-02-26T10:42:54;13.50;89.30
24085;DHT22;12268;52.110;5.548;2023-02-26T10:50:51;13.70;85.40
24085;DHT22;12268;52.110;5.548;2023-02-26T10:53:19;13.60;87.80
24085;DHT22;12268;52.110;5.548;2023-02-26T10:56:05;13.80;89.20
24085;DHT22;12268;52.110;5.548;2023-02-26T10:58:32;13.80;86.10
24085;DHT22;12268;52.110;5.548;2023-02-26T11:00:58;13.70;89.30
24085;DHT22;12268;52.110;5.548;2023-02-26T11:05:52;13.60;87.60
24085;DHT22;12268;52.110;5.548;2023-02-26T11:08:31;14.30;90.10
24085;DHT22;12268;52.110;5.548;2023-02-26T11:10:59;14.70;86.70
24085;DHT22;12268;52.110;5.548;2023-02-26T11:13:27;13.90;85.70
24085;DHT22;12268;52.110;5.548;2023-02-26T11:15:56;13.10;85.40
24085;DHT22;12268;52.110;5.548;2023-02-26T11:18:26;13.50;90.20
24085;DHT22;12268;52.110;5.548;2023-02-26T11:20:55;14.50;87.80
24085;DHT22;12268;52.110;5.548;2023-02-26T11:23:25;16.00;86.30
24085;DHT22;12268;52.110;5.548;2023-02-26T11:25:53;16.90;85.50
24085;DHT22;12268;52.110;5.548;2023-02-26T11:28:28;17.40;83.30
24085;DHT22;12268;52.110;5.548;2023-02-26T11:30:55;16.40;84.00
24085;DHT22;12268;52.110;5.548;2023-02-26T11:33:37;16.70;82.70
24085;DHT22;12268;52.110;5.548;2023-02-26T11:36:08;16.20;81.10
24085;DHT22;12268;52.110;5.548;2023-02-26T11:38:36;15.70;74.40
24085;DHT22;12268;52.110;5.548;2023-02-26T11:41:02;15.50;79.90
24085;DHT22;12268;52.110;5.548;2023-02-26T11:43:36;16.00;77.50
24085;DHT22;12268;52.110;5.548;2023-02-26T11:46:04;17.00;75.50
24085;DHT22;12268;52.110;5.548;2023-02-26T11:48:46;17.20;77.60
24085;DHT22;12268;52.110;5.548;2023-02-26T11:51:14;17.20;78.00
24085;DHT22;12268;52.110;5.548;2023-02-26T11:58:58;15.80;70.30
24085;DHT22;12268;52.110;5.548;2023-02-26T12:01:28;15.40;76.10
24085;DHT22;12268;52.110;5.548;2023-02-26T12:03:58;16.00;75.50
24085;DHT22;12268;52.110;5.548;2023-02-26T12:06:25;16.70;75.10
24085;DHT22;12268;52.110;5.548;2023-02-26T12:08:50;17.10;72.90
24085;DHT22;12268;52.110;5.548;2023-02-26T12:31:37;18.70;71.40
24085;DHT22;12268;52.110;5.548;2023-02-26T12:40:04;20.20;65.70
24085;DHT22;12268;52.110;5.548;2023-02-26T12:45:23;18.60;69.00
24085;DHT22;12268;52.110;5.548;2023-02-26T12:50:53;18.40;63.00
24085;DHT22;12268;52.110;5.548;2023-02-26T12:59:12;17.40;67.10
24085;DHT22;12268;52.110;5.548;2023-02-26T13:02:11;17.60;64.50
24085;DHT22;12268;52.110;5.548;2023-02-26T13:05:11;17.40;64.50
24085;DHT22;12268;52.110;5.548;2023-02-26T13:07:49;14.70;68.60
24085;DHT22;12268;52.110;5.548;2023-02-26T13:13:18;12.00;77.30
24085;DHT22;12268;52.110;5.548;2023-02-26T13:15:51;11.60;76.50
24085;DHT22;12268;52.110;5.548;2023-02-26T13:21:33;11.90;76.70
24085;DHT22;12268;52.110;5.548;2023-02-26T13:24:02;11.50;77.10
24085;DHT22;12268;52.110;5.548;2023-02-26T13:26:31;10.60;79.40
24085;DHT22;12268;52.110;5.548;2023-02-26T13:28:58;10.50;82.90
24085;DHT22;12268;52.110;5.548;2023-02-26T13:31:33;10.50;84.10
24085;DHT22;12268;52.110;5.548;2023-02-26T13:37:04;11.00;79.60
24085;DHT22;12268;52.110;5.548;2023-02-26T13:39:40;10.30;83.30
24085;DHT22;12268;52.110;5.548;2023-02-26T13:47:45;10.30;83.70
24085;DHT22;12268;52.110;5.548;2023-02-26T13:50:29;10.10;83.80
24085;DHT22;12268;52.110;5.548;2023-02-26T13:53:35;9.90;86.10
24085;DHT22;12268;52.110;5.548;2023-02-26T13:58:47;10.10;85.30
24085;DHT22;12268;52.110;5.548;2023-02-26T14:03:49;10.20;84.40
24085;DHT22;12268;52.110;5.548;2023-02-26T14:27:31;9.90;86.20
24085;DHT22;12268;52.110;5.548;2023-02-26T14:30:03;10.00;85.70
24085;DHT22;12268;52.110;5.548;2023-02-26T14:35:42;10.10;86.80
24085;DHT22;12268;52.110;5.548;2023-02-26T14:38:19;10.30;86.30
24085;DHT22;12268;52.110;5.548;2023-02-26T14:40:48;10.20;83.60
24085;DHT22;12268;52.110;5.548;2023-02-26T14:43:20;9.90;82.40
24085;DHT22;12268;52.110;5.548;2023-02-26T14:45:46;9.50;86.00
24085;DHT22;12268;52.110;5.548;2023-02-26T14:48:15;9.30;86.30
24085;DHT22;12268;52.110;5.548;2023-02-26T14:53:44;9.40;89.30
24085;DHT22;12268;52.110;5.548;2023-02-26T15:02:19;10.10;87.00
24085;DHT22;12268;52.110;5.548;2023-02-26T15:07:33;10.20;86.60
24085;DHT22;12268;52.110;5.548;2023-02-26T15:10:20;10.00;87.00
24085;DHT22;12268;52.110;5.548;2023-02-26T15:12:59;9.90;88.30
24085;DHT22;12268;52.110;5.548;2023-02-26T15:15:37;9.80;88.20
24085;DHT22;12268;52.110;5.548;2023-02-26T15:23:48;10.00;88.70
24085;DHT22;12268;52.110;5.548;2023-02-26T15:26:21;9.90;88.60
24085;DHT22;12268;52.110;5.548;2023-02-26T15:28:48;10.00;87.40
24085;DHT22;12268;52.110;5.548;2023-02-26T15:31:15;9.70;85.90
24085;DHT22;12268;52.110;5.548;2023-02-26T15:33:43;9.40;87.50
24085;DHT22;12268;52.110;5.548;2023-02-26T15:36:16;9.20;88.00
24085;DHT22;12268;52.110;5.548;2023-02-26T15:38:47;9.10;88.60
24085;DHT22;12268;52.110;5.548;2023-02-26T15:41:13;9.10;88.20
24085;DHT22;12268;52.110;5.548;2023-02-26T15:43:49;9.10;87.90
24085;DHT22;12268;52.110;5.548;2023-02-26T15:46:15;9.00;90.00
24085;DHT22;12268;52.110;5.548;2023-02-26T15:48:42;9.10;89.50
24085;DHT22;12268;52.110;5.548;2023-02-26T15:51:11;9.10;90.40
24085;DHT22;12268;52.110;5.548;2023-02-26T15:53:46;9.20;90.30
24085;DHT22;12268;52.110;5.548;2023-02-26T15:56:21;9.20;90.50
24085;DHT22;12268;52.110;5.548;2023-02-26T15:58:52;9.20;90.60
24085;DHT22;12268;52.110;5.548;2023-02-26T16:01:25;9.30;90.90
24085;DHT22;12268;52.110;5.548;2023-02-26T16:03:54;9.40;91.00
24085;DHT22;12268;52.110;5.548;2023-02-26T16:06:31;9.40;90.40
24085;DHT22;12268;52.110;5.548;2023-02-26T16:08:58;9.30;90.50
24085;DHT22;12268;52.110;5.548;2023-02-26T16:11:28;9.00;90.50
24085;DHT22;12268;52.110;5.548;2023-02-26T16:13:57;8.80;91.50
24085;DHT22;12268;52.110;5.548;2023-02-26T16:16:40;8.70;92.00
24085;DHT22;12268;52.110;5.548;2023-02-26T16:19:12;8.70;91.60
24085;DHT22;12268;52.110;5.548;2023-02-26T16:21:39;8.80;91.80
24085;DHT22;12268;52.110;5.548;2023-02-26T16:24:08;8.80;92.40
24085;DHT22;12268;52.110;5.548;2023-02-26T16:26:46;8.70;92.30
24085;DHT22;12268;52.110;5.548;2023-02-26T16:29:17;8.40;92.20
24085;DHT22;12268;52.110;5.548;2023-02-26T16:31:47;8.20;92.60
24085;DHT22;12268;52.110;5.548;2023-02-26T16:34:47;8.00;93.30
24085;DHT22;12268;52.110;5.548;2023-02-26T16:37:30;8.00;94.00
24085;DHT22;12268;52.110;5.548;2023-02-26T16:40:18;8.10;93.30
24085;DHT22;12268;52.110;5.548;2023-02-26T16:42:52;8.10;93.70
24085;DHT22;12268;52.110;5.548;2023-02-26T16:45:42;8.10;93.80
24085;DHT22;12268;52.110;5.548;2023-02-26T16:48:17;8.10;93.70
24085;DHT22;12268;52.110;5.548;2023-02-26T16:51:03;8.10;94.10
24085;DHT22;12268;52.110;5.548;2023-02-26T16:53:57;8.00;94.10
24085;DHT22;12268;52.110;5.548;2023-02-26T16:56:27;8.10;94.10
24085;DHT22;12268;52.110;5.548;2023-02-26T16:59:14;8.00;94.30
24085;DHT22;12268;52.110;5.548;2023-02-26T17:02:02;7.80;94.90
24085;DHT22;12268;52.110;5.548;2023-02-26T17:04:31;7.60;95.40
24085;DHT22;12268;52.110;5.548;2023-02-26T17:06:58;7.70;95.50
24085;DHT22;12268;52.110;5.548;2023-02-26T17:09:32;7.60;95.50
24085;DHT22;12268;52.110;5.548;2023-02-26T17:15:10;7.50;95.90
24085;DHT22;12268;52.110;5.548;2023-02-26T17:17:28;7.30;96.10
24085;DHT22;12268;52.110;5.548;2023-02-26T17:19:53;7.30;96.40
24085;DHT22;12268;52.110;5.548;2023-02-26T17:22:25;7.30;96.50
24085;DHT22;12268;52.110;5.548;2023-02-26T17:24:51;7.20;97.10
24085;DHT22;12268;52.110;5.548;2023-02-26T17:27:30;7.10;97.20
24085;DHT22;12268;52.110;5.548;2023-02-26T17:29:56;7.00;97.70
24085;DHT22;12268;52.110;5.548;2023-02-26T17:32:24;7.00;98.10
24085;DHT22;12268;52.110;5.548;2023-02-26T17:34:55;6.90;98.20
24085;DHT22;12268;52.110;5.548;2023-02-26T17:37:24;6.80;98.60
24085;DHT22;12268;52.110;5.548;2023-02-26T17:39:53;6.70;98.90
24085;DHT22;12268;52.110;5.548;2023-02-26T17:42:19;6.70;99.30
24085;DHT22;12268;52.110;5.548;2023-02-26T17:44:47;6.70;99.40
24085;DHT22;12268;52.110;5.548;2023-02-26T17:47:15;6.70;99.80
24085;DHT22;12268;52.110;5.548;2023-02-26T17:49:41;6.60;99.90
24085;DHT22;12268;52.110;5.548;2023-02-26T17:52:07;6.60;99.90
24085;DHT22;12268;52.110;5.548;2023-02-26T17:54:32;6.60;99.90
24085;DHT22;12268;52.110;5.548;2023-02-26T17:56:58;6.50;99.90
24085;DHT22;12268;52.110;5.548;2023-02-26T17:59:24;6.50;99.90
24085;DHT22;12268;52.110;5.548;2023-02-26T18:01:49;6.50;99.90
24085;DHT22;12268;52.110;5.548;2023-02-26T18:04:15;6.50;99.90
24085;DHT22;12268;52.110;5.548;2023-02-26T18:06:41;6.50;99.90
24085;DHT22;12268;52.110;5.548;2023-02-26T18:09:10;6.30;99.90
24085;DHT22;12268;52.110;5.548;2023-02-26T18:11:36;6.40;99.90
24085;DHT22;12268;52.110;5.548;2023-02-26T18:14:02;6.40;99.90
24085;DHT22;12268;52.110;5.548;2023-02-26T18:16:34;6.40;99.90
24085;DHT22;12268;52.110;5.548;2023-02-26T18:19:00;6.30;99.90
24085;DHT22;12268;52.110;5.548;2023-02-26T18:21:27;6.40;99.90
24085;DHT22;12268;52.110;5.548;2023-02-26T18:23:53;6.40;99.90
24085;DHT22;12268;52.110;5.548;2023-02-26T18:26:21;6.30;99.90
24085;DHT22;12268;52.110;5.548;2023-02-26T18:28:48;6.20;99.90
24085;DHT22;12268;52.110;5.548;2023-02-26T18:31:15;6.20;99.90
24085;DHT22;12268;52.110;5.548;2023-02-26T18:33:41;6.30;99.90
24085;DHT22;12268;52.110;5.548;2023-02-26T18:36:16;6.30;99.90
24085;DHT22;12268;52.110;5.548;2023-02-26T18:38:43;6.30;99.90
24085;DHT22;12268;52.110;5.548;2023-02-26T18:41:09;6.20;99.90
24085;DHT22;12268;52.110;5.548;2023-02-26T18:43:34;6.10;99.90
24085;DHT22;12268;52.110;5.548;2023-02-26T18:46:00;6.10;99.90
24085;DHT22;12268;52.110;5.548;2023-02-26T18:48:27;6.10;99.90
24085;DHT22;12268;52.110;5.548;2023-02-26T18:50:52;6.00;99.90
24085;DHT22;12268;52.110;5.548;2023-02-26T18:53:20;6.00;99.90
24085;DHT22;12268;52.110;5.548;2023-02-26T18:55:49;6.10;99.90
24085;DHT22;12268;52.110;5.548;2023-02-26T18:58:16;6.00;99.90